Snoqualmie River Flood Gauge Status

Sum of the 3 forks - Station Details,
Latest reading:
Thu05/13 05:15 am 3276 cfs (-4/hr)
Past 24hr max:
Thu05/13 03:45 am 3286 cfs
Forecasted crests: (published Wed 05/12/21 02:45 pm)
Thu05/13 05:00 am 2710 cfs
Fri05/14 11:00 am 2823 cfs
Sat05/15 05:00 am 3021 cfs
Sun05/16 05:00 am 3266 cfs
Mon05/17 05:00 am 3479 cfs
Tue05/18 05:00 am 3171 cfs
Wed05/19 05:00 am 3985 cfs
Snoqualmie Falls station - Station Details,
flood stage: 13.43 ft
Latest reading:
Thu05/13 05:30 am 6.71 ft 3770 cfs (-56/hr)
Past 24hr max:
Thu05/13 05:15 am 6.72 ft 3784 cfs
Forecasted crests: (published Wed 05/12/21 02:45 pm)
Thu05/13 11:00 am 6.38 ft 3328 cfs
Fri05/14 11:00 am 6.49 ft 3473 cfs
Sat05/15 11:00 am 6.63 ft 3665 cfs
Sun05/16 11:00 am 6.81 ft 3907 cfs
Mon05/17 11:00 am 7.0 ft 4180 cfs
Wed05/19 11:00 am 7.33 ft 4688 cfs
Carnation station - Station Details,
flood stage: 54.0 ft
Latest reading:
Thu05/13 05:15 am 47.28 ft 4110 cfs (+80/hr)
Past 24hr max:
Thu05/13 05:15 am 47.28 ft 4110 cfs
Forecasted crests: (published Wed 05/12/21 02:45 pm)
Thu05/13 05:00 pm 47.28 ft 4110 cfs
Fri05/14 05:00 pm 47.36 ft 4284 cfs
Sat05/15 05:00 pm 47.45 ft 4488 cfs
Sun05/16 05:00 pm 47.57 ft 4738 cfs
Mon05/17 05:00 pm 47.69 ft 5027 cfs
Wed05/19 05:00 pm 47.95 ft 5646 cfs

Snoqualmie River flood gauge data supplied by the
National Weather Service Northwest River Forecast Center.

Sign up for Floodzilla alerts.